Time;durP1;ratioP1;P1;durP2;ratioP2;P2;SDS_P1;SDS_P2;PMS_P1;PMS_P2;Temp;Humidity;BMP_temperature;BMP_pressure;BME280_temperature;BME280_humidity;BME280_pressure;Samples;Min_cycle;Max_cycle;Signal;HPM_P1;HPM_P2
2023/09/03 00:03:06;;;;;;;13.65;8.38;;;;;;;;;;12870449;23;19995;-70
2023/09/03 00:08:06;;;;;;;10.40;7.95;;;;;;;;;;12870213;23;20005;-71
2023/09/03 00:13:07;;;;;;;10.07;7.50;;;;;;;;;;12869718;23;20012;-71
2023/09/03 00:18:08;;;;;;;11.43;7.63;;;;;;;;;;12785351;23;20231;-70
2023/09/03 00:23:09;;;;;;;13.70;8.25;;;;;;;;;;12807634;23;20028;-70
2023/09/03 00:28:09;;;;;;;10.55;7.82;;;;;;;;;;12808045;23;20308;-70
2023/09/03 00:33:09;;;;;;;12.30;7.30;;;;;;;;;;12807400;23;20005;-70
2023/09/03 00:38:10;;;;;;;13.25;8.50;;;;;;;;;;12785059;23;20001;-70
2023/09/03 00:43:10;;;;;;;11.93;8.50;;;;;;;;;;12808038;23;20005;-70
2023/09/03 00:48:12;;;;;;;12.13;7.77;;;;;;;;;;12785244;23;20005;-71
2023/09/03 00:53:13;;;;;;;9.40;7.28;;;;;;;;;;12805472;23;20013;-70
2023/09/03 00:58:14;;;;;;;11.70;7.10;;;;;;;;;;12807374;23;20036;-70
2023/09/03 01:03:14;;;;;;;10.75;7.75;;;;;;;;;;12806960;23;20272;-70
2023/09/03 01:08:15;;;;;;;12.68;7.70;;;;;;;;;;12806653;23;20051;-72
2023/09/03 01:13:20;;;;;;;10.80;7.87;;;;;;;;;;12806832;23;20251;-69
2023/09/03 01:18:26;;;;;;;11.55;8.80;;;;;;;;;;12781448;23;20260;-71
2023/09/03 01:23:29;;;;;;;9.93;7.97;;;;;;;;;;12806022;23;20051;-70
2023/09/03 01:28:30;;;;;;;12.43;8.73;;;;;;;;;;12806143;23;20016;-70
2023/09/03 01:33:32;;;;;;;11.32;7.53;;;;;;;;;;12805799;23;20009;-71
2023/09/03 01:38:32;;;;;;;13.05;7.45;;;;;;;;;;12795013;23;19997;-71
2023/09/03 01:43:33;;;;;;;12.13;8.25;;;;;;;;;;12806182;23;20341;-70
2023/09/03 01:48:48;;;;;;;13.35;9.20;;;;;;;;;;12806117;23;20028;-72
2023/09/03 01:53:58;;;;;;;11.55;8.15;;;;;;;;;;12805935;23;20084;-68
2023/09/03 01:59:03;;;;;;;14.32;8.60;;;;;;;;;;12806790;23;19997;-68
2023/09/03 02:04:03;;;;;;;13.05;9.00;;;;;;;;;;12799778;23;20005;-68
2023/09/03 02:09:03;;;;;;;10.52;7.85;;;;;;;;;;12805955;23;20001;-68
2023/09/03 02:14:04;;;;;;;10.70;7.63;;;;;;;;;;12805793;23;20007;-68
2023/09/03 02:19:04;;;;;;;12.77;8.63;;;;;;;;;;12783059;23;20020;-68
2023/09/03 02:24:04;;;;;;;11.93;8.10;;;;;;;;;;12784577;23;20013;-70
2023/09/03 02:29:05;;;;;;;10.63;7.83;;;;;;;;;;12805181;23;20128;-68
2023/09/03 02:34:06;;;;;;;18.92;9.20;;;;;;;;;;12780257;23;20009;-68
2023/09/03 02:39:06;;;;;;;15.13;8.90;;;;;;;;;;12791086;23;20195;-68
2023/09/03 02:44:09;;;;;;;12.37;9.03;;;;;;;;;;12805046;23;20004;-75
2023/09/03 02:49:10;;;;;;;11.68;8.57;;;;;;;;;;12804894;23;20209;-78
2023/09/03 02:54:10;;;;;;;14.15;9.02;;;;;;;;;;12784059;23;20013;-76
2023/09/03 02:59:11;;;;;;;11.27;8.63;;;;;;;;;;12811102;23;20020;-90
2023/09/03 03:04:12;;;;;;;16.65;10.60;;;;;;;;;;12788351;23;20090;-74
2023/09/03 03:09:12;;;;;;;12.98;8.85;;;;;;;;;;12804374;23;20311;-74
2023/09/03 03:14:13;;;;;;;16.45;8.07;;;;;;;;;;12805589;23;20187;-78
2023/09/03 03:19:14;;;;;;;13.90;7.45;;;;;;;;;;12864952;23;20091;-75
2023/09/03 03:24:14;;;;;;;14.75;8.65;;;;;;;;;;12866481;23;20190;-74
2023/09/03 03:29:14;;;;;;;13.20;8.37;;;;;;;;;;12847055;23;20190;-73
2023/09/03 03:34:15;;;;;;;11.98;8.68;;;;;;;;;;12866040;23;20000;-76
2023/09/03 03:39:15;;;;;;;16.95;10.38;;;;;;;;;;12850187;23;19993;-75
2023/09/03 03:44:15;;;;;;;10.23;8.07;;;;;;;;;;12844437;23;20016;-68
2023/09/03 03:49:15;;;;;;;13.35;8.30;;;;;;;;;;12866570;23;20031;-67
2023/09/03 03:54:16;;;;;;;11.98;7.95;;;;;;;;;;12866677;23;20004;-67
2023/09/03 03:59:16;;;;;;;13.38;9.00;;;;;;;;;;12863212;23;20083;-67
2023/09/03 04:04:16;;;;;;;18.73;10.95;;;;;;;;;;12862888;23;20016;-68
2023/09/03 04:09:16;;;;;;;12.18;9.02;;;;;;;;;;12862715;23;20276;-68
2023/09/03 04:14:17;;;;;;;10.77;7.57;;;;;;;;;;12856111;23;20060;-67
2023/09/03 04:19:17;;;;;;;13.07;8.80;;;;;;;;;;12778226;23;20021;-68
2023/09/03 04:24:17;;;;;;;15.23;9.25;;;;;;;;;;12805974;23;20222;-67
2023/09/03 04:29:17;;;;;;;13.85;8.55;;;;;;;;;;12807825;23;20005;-68
2023/09/03 04:34:18;;;;;;;11.53;9.00;;;;;;;;;;12806706;23;20075;-68
2023/09/03 04:39:18;;;;;;;12.38;8.27;;;;;;;;;;12792207;23;20263;-67
2023/09/03 04:44:19;;;;;;;13.25;8.45;;;;;;;;;;12807899;23;20021;-68
2023/09/03 04:49:19;;;;;;;17.65;9.60;;;;;;;;;;12807346;23;20029;-68
2023/09/03 04:54:20;;;;;;;14.48;9.02;;;;;;;;;;12807970;23;20001;-68
2023/09/03 04:59:20;;;;;;;14.40;9.23;;;;;;;;;;12807556;23;20045;-69
2023/09/03 05:04:20;;;;;;;11.17;8.23;;;;;;;;;;12806853;23;20079;-68
2023/09/03 05:09:21;;;;;;;12.48;7.75;;;;;;;;;;12806893;23;20287;-69
2023/09/03 05:14:21;;;;;;;10.55;7.78;;;;;;;;;;12807345;23;20004;-72
2023/09/03 05:19:21;;;;;;;12.82;8.73;;;;;;;;;;12868725;23;19996;-69
2023/09/03 05:24:21;;;;;;;10.85;7.97;;;;;;;;;;12868857;23;19989;-73
2023/09/03 05:29:24;;;;;;;11.65;7.72;;;;;;;;;;12869488;23;20038;-73
2023/09/03 05:34:25;;;;;;;11.07;7.72;;;;;;;;;;12866758;23;20083;-72
2023/09/03 05:39:26;;;;;;;11.52;7.60;;;;;;;;;;12850349;23;20001;-72
2023/09/03 05:44:26;;;;;;;11.85;7.70;;;;;;;;;;12866363;23;20013;-77
2023/09/03 05:49:27;;;;;;;16.15;8.13;;;;;;;;;;12862158;23;20274;-80
2023/09/03 05:54:27;;;;;;;11.98;7.32;;;;;;;;;;12862866;23;19997;-70
2023/09/03 05:59:27;;;;;;;9.27;6.68;;;;;;;;;;12862156;23;20286;-71
2023/09/03 06:04:27;;;;;;;7.75;5.80;;;;;;;;;;12865036;23;20205;-70
2023/09/03 06:09:28;;;;;;;16.23;6.93;;;;;;;;;;12865797;23;20007;-70
2023/09/03 06:14:28;;;;;;;10.30;6.55;;;;;;;;;;12819490;23;20317;-72
2023/09/03 06:19:28;;;;;;;9.23;6.38;;;;;;;;;;12865578;23;20070;-73
2023/09/03 06:24:30;;;;;;;13.45;6.68;;;;;;;;;;12844338;23;20074;-71
2023/09/03 06:29:30;;;;;;;9.70;7.23;;;;;;;;;;12864109;23;20047;-72
2023/09/03 06:34:31;;;;;;;13.75;7.82;;;;;;;;;;12818783;23;20019;-72
2023/09/03 06:39:31;;;;;;;23.67;9.32;;;;;;;;;;12849720;23;20275;-71
2023/09/03 06:44:31;;;;;;;17.58;8.05;;;;;;;;;;12866036;23;20051;-73
2023/09/03 06:49:32;;;;;;;24.08;9.30;;;;;;;;;;12867629;23;19996;-73
2023/09/03 06:54:32;;;;;;;13.00;8.67;;;;;;;;;;12865757;23;20027;-70
2023/09/03 06:59:32;;;;;;;11.05;7.90;;;;;;;;;;12866141;23;20183;-71
2023/09/03 07:04:33;;;;;;;12.00;7.77;;;;;;;;;;12865474;23;20068;-70
2023/09/03 07:09:33;;;;;;;13.38;7.20;;;;;;;;;;12818455;23;20067;-71
2023/09/03 07:14:34;;;;;;;11.13;7.07;;;;;;;;;;12865241;23;20004;-70
2023/09/03 07:19:34;;;;;;;12.15;6.18;;;;;;;;;;12865469;23;20004;-69
2023/09/03 07:24:34;;;;;;;8.85;6.03;;;;;;;;;;12864972;23;20054;-68
2023/09/03 07:29:34;;;;;;;8.95;5.63;;;;;;;;;;12865783;23;20005;-68
2023/09/03 07:34:35;;;;;;;7.68;5.75;;;;;;;;;;12817427;23;20291;-69
2023/09/03 07:39:35;;;;;;;9.65;5.18;;;;;;;;;;12849015;23;20000;-69
2023/09/03 07:44:35;;;;;;;7.85;5.63;;;;;;;;;;12865344;23;20024;-69
2023/09/03 07:49:35;;;;;;;8.57;4.88;;;;;;;;;;12865559;23;20056;-69
2023/09/03 07:54:36;;;;;;;8.95;4.90;;;;;;;;;;12867231;23;20011;-69
2023/09/03 07:59:36;;;;;;;6.25;4.55;;;;;;;;;;12869334;23;20000;-69
2023/09/03 08:04:36;;;;;;;5.20;4.37;;;;;;;;;;12869319;23;20370;-69
2023/09/03 08:09:36;;;;;;;6.07;4.38;;;;;;;;;;12868904;23;19992;-69
2023/09/03 08:14:37;;;;;;;7.65;4.38;;;;;;;;;;12869309;23;19993;-69
2023/09/03 08:19:38;;;;;;;5.38;3.88;;;;;;;;;;12868605;23;20001;-69
2023/09/03 08:24:38;;;;;;;7.45;4.07;;;;;;;;;;12822062;23;20242;-69
2023/09/03 08:29:39;;;;;;;4.93;3.40;;;;;;;;;;12869262;23;20294;-69
2023/09/03 08:34:39;;;;;;;4.97;3.13;;;;;;;;;;12867878;23;20043;-69
2023/09/03 08:39:39;;;;;;;5.13;3.50;;;;;;;;;;12850557;23;19988;-68
2023/09/03 08:44:45;;;;;;;5.22;3.50;;;;;;;;;;12868397;23;20055;-68
2023/09/03 08:49:46;;;;;;;7.25;3.60;;;;;;;;;;12867864;23;19992;-68
2023/09/03 08:54:46;;;;;;;4.07;3.22;;;;;;;;;;12821828;23;20012;-69
2023/09/03 08:59:47;;;;;;;4.82;3.33;;;;;;;;;;12868368;23;20366;-68
2023/09/03 09:04:47;;;;;;;5.65;4.07;;;;;;;;;;12867204;23;20043;-68
2023/09/03 09:09:48;;;;;;;11.13;4.20;;;;;;;;;;12868533;23;20175;-68
2023/09/03 09:14:52;;;;;;;6.45;3.50;;;;;;;;;;12821369;23;20203;-69
2023/09/03 09:19:52;;;;;;;8.00;4.13;;;;;;;;;;12864912;23;20016;-67
2023/09/03 09:24:52;;;;;;;5.82;3.10;;;;;;;;;;12867469;23;20060;-67
2023/09/03 09:29:53;;;;;;;5.53;3.27;;;;;;;;;;12867635;23;20001;-68
2023/09/03 09:34:53;;;;;;;4.72;3.60;;;;;;;;;;12867835;23;20329;-68
2023/09/03 09:39:53;;;;;;;5.55;3.78;;;;;;;;;;12846318;23;20262;-68
2023/09/03 09:44:55;;;;;;;4.95;3.40;;;;;;;;;;12867673;23;20039;-68
2023/09/03 09:49:55;;;;;;;4.93;2.50;;;;;;;;;;12821824;23;20004;-69
2023/09/03 09:54:55;;;;;;;3.73;3.30;;;;;;;;;;12868217;23;20056;-68
2023/09/03 09:59:59;;;;;;;6.28;3.42;;;;;;;;;;12867932;23;19996;-68
2023/09/03 10:05:00;;;;;;;6.20;3.22;;;;;;;;;;12868554;23;20016;-68
2023/09/03 10:10:00;;;;;;;4.15;2.88;;;;;;;;;;12868031;23;20290;-69
2023/09/03 10:15:01;;;;;;;5.45;3.20;;;;;;;;;;12868868;23;20016;-68
2023/09/03 10:20:04;;;;;;;2.97;2.72;;;;;;;;;;12866764;23;20179;-68
2023/09/03 10:25:07;;;;;;;5.88;2.92;;;;;;;;;;12867211;23;20031;-68
2023/09/03 10:30:09;;;;;;;6.60;2.65;;;;;;;;;;12856034;23;20011;-69
2023/09/03 10:35:10;;;;;;;5.18;2.25;;;;;;;;;;12866834;23;20287;-69
2023/09/03 10:40:16;;;;;;;5.28;2.25;;;;;;;;;;12847243;23;20028;-69
2023/09/03 10:45:18;;;;;;;5.85;2.55;;;;;;;;;;12867097;23;20062;-69
2023/09/03 10:50:38;;;;;;;2.78;2.13;;;;;;;;;;12867057;23;20321;-69
2023/09/03 10:55:38;;;;;;;3.67;2.60;;;;;;;;;;12866750;23;20004;-70
2023/09/03 11:00:38;;;;;;;3.33;2.50;;;;;;;;;;12869191;23;20003;-70
2023/09/03 11:05:39;;;;;;;10.85;2.65;;;;;;;;;;12866485;23;20313;-69
2023/09/03 11:10:39;;;;;;;4.10;2.53;;;;;;;;;;12866157;23;20182;-69
2023/09/03 11:15:48;;;;;;;3.67;2.72;;;;;;;;;;12861091;23;20325;-69
2023/09/03 11:20:49;;;;;;;3.50;2.88;;;;;;;;;;12866745;23;20363;-69
2023/09/03 11:25:49;;;;;;;5.10;3.03;;;;;;;;;;12866147;23;20031;-69
2023/09/03 11:30:57;;;;;;;5.37;3.57;;;;;;;;;;12868506;23;20007;-69
2023/09/03 11:36:00;;;;;;;5.57;3.22;;;;;;;;;;12866925;23;20008;-69
2023/09/03 11:41:00;;;;;;;4.35;3.08;;;;;;;;;;12869764;23;19992;-69
2023/09/03 11:46:01;;;;;;;5.22;3.20;;;;;;;;;;12870480;23;20234;-68
2023/09/03 11:51:01;;;;;;;15.65;4.07;;;;;;;;;;12869776;23;20000;-68
2023/09/03 11:56:01;;;;;;;10.68;3.40;;;;;;;;;;12871342;23;20037;-67
2023/09/03 12:01:02;;;;;;;6.60;3.70;;;;;;;;;;12869579;23;19996;-68
2023/09/03 12:06:03;;;;;;;6.93;3.80;;;;;;;;;;12869246;23;20000;-69
2023/09/03 12:11:03;;;;;;;5.10;3.60;;;;;;;;;;12869110;23;20020;-67
2023/09/03 12:16:06;;;;;;;3.40;3.03;;;;;;;;;;12870132;23;20206;-67
2023/09/03 12:21:07;;;;;;;4.18;3.33;;;;;;;;;;12862414;23;20055;-68
2023/09/03 12:26:14;;;;;;;8.10;4.03;;;;;;;;;;12869041;23;20034;-68
2023/09/03 12:31:14;;;;;;;5.17;3.40;;;;;;;;;;12869421;23;20070;-68
2023/09/03 12:36:14;;;;;;;4.32;3.67;;;;;;;;;;12865161;23;20253;-69
2023/09/03 12:41:14;;;;;;;5.10;3.95;;;;;;;;;;12868863;23;20171;-69
2023/09/03 12:46:15;;;;;;;5.65;4.47;;;;;;;;;;12869002;23;20048;-68
2023/09/03 12:51:16;;;;;;;7.90;4.27;;;;;;;;;;12869032;23;20008;-70
2023/09/03 12:56:16;;;;;;;7.82;5.53;;;;;;;;;;12861638;23;20008;-69
2023/09/03 13:01:17;;;;;;;5.82;4.68;;;;;;;;;;12867670;23;20218;-68
2023/09/03 13:06:17;;;;;;;5.93;4.50;;;;;;;;;;12871107;23;20043;-70
2023/09/03 13:11:20;;;;;;;7.93;4.30;;;;;;;;;;12868019;23;19999;-69
2023/09/03 13:16:21;;;;;;;5.07;4.55;;;;;;;;;;12847152;23;20027;-70
2023/09/03 13:21:22;;;;;;;8.23;4.50;;;;;;;;;;12868454;23;20044;-70
2023/09/03 13:26:22;;;;;;;8.43;5.05;;;;;;;;;;12867880;23;20214;-70
2023/09/03 13:31:25;;;;;;;6.90;4.40;;;;;;;;;;12867100;23;20271;-68
2023/09/03 13:36:26;;;;;;;8.70;4.68;;;;;;;;;;12863862;23;20313;-69
2023/09/03 13:41:27;;;;;;;7.93;5.37;;;;;;;;;;12866885;23;20017;-69
2023/09/03 13:46:29;;;;;;;10.23;4.78;;;;;;;;;;12867491;23;20008;-68
2023/09/03 13:51:29;;;;;;;6.03;3.65;;;;;;;;;;12868535;23;20332;-68
2023/09/03 13:56:29;;;;;;;6.72;3.92;;;;;;;;;;12867173;23;20309;-69
2023/09/03 14:01:29;;;;;;;4.30;3.25;;;;;;;;;;12866635;23;20333;-68
2023/09/03 14:06:30;;;;;;;5.55;2.92;;;;;;;;;;12868019;23;20000;-70
2023/09/03 14:11:30;;;;;;;5.17;3.37;;;;;;;;;;12866462;23;19996;-68
2023/09/03 14:16:31;;;;;;;8.40;7.28;;;;;;;;;;12818837;23;20016;-70
2023/09/03 14:21:31;;;;;;;9.98;3.42;;;;;;;;;;12866946;23;20000;-69
2023/09/03 14:26:31;;;;;;;4.78;3.33;;;;;;;;;;12866143;23;20059;-69
2023/09/03 14:31:32;;;;;;;7.72;3.95;;;;;;;;;;12866388;23;20039;-70
2023/09/03 14:36:32;;;;;;;6.72;3.95;;;;;;;;;;12861868;23;20028;-68
2023/09/03 14:41:32;;;;;;;8.52;3.50;;;;;;;;;;12866509;23;20010;-70
2023/09/03 14:46:33;;;;;;;6.63;3.33;;;;;;;;;;12866835;23;20047;-68
2023/09/03 14:51:33;;;;;;;4.90;3.40;;;;;;;;;;12866285;23;19999;-68
2023/09/03 14:56:33;;;;;;;7.22;3.63;;;;;;;;;;12866231;23;20015;-68
2023/09/03 15:01:34;;;;;;;8.45;7.13;;;;;;;;;;12865512;23;19989;-69
2023/09/03 15:06:34;;;;;;;6.72;3.70;;;;;;;;;;12866223;23;20042;-68
2023/09/03 15:11:34;;;;;;;6.85;3.92;;;;;;;;;;12819131;23;20328;-70
2023/09/03 15:16:34;;;;;;;10.23;5.35;;;;;;;;;;12865327;23;20036;-68
2023/09/03 15:21:35;;;;;;;5.93;3.90;;;;;;;;;;12866344;23;19993;-70
2023/09/03 15:26:35;;;;;;;7.43;3.90;;;;;;;;;;12858475;23;20290;-68
2023/09/03 15:31:35;;;;;;;6.00;4.00;;;;;;;;;;12865445;23;20537;-68
2023/09/03 15:36:36;;;;;;;9.30;3.80;;;;;;;;;;12860689;23;20016;-68
2023/09/03 15:41:37;;;;;;;7.30;3.80;;;;;;;;;;12865562;23;20043;-69
2023/09/03 15:46:37;;;;;;;8.10;4.23;;;;;;;;;;12865610;23;20565;-69
2023/09/03 15:51:39;;;;;;;7.65;3.72;;;;;;;;;;12865725;23;20000;-68
2023/09/03 15:56:40;;;;;;;10.68;7.07;;;;;;;;;;12865961;23;20011;-68
2023/09/03 16:01:41;;;;;;;3.85;3.33;;;;;;;;;;12864491;23;20015;-68
2023/09/03 16:06:41;;;;;;;5.05;3.95;;;;;;;;;;12865117;23;20003;-70
2023/09/03 16:11:41;;;;;;;5.67;3.70;;;;;;;;;;12818688;23;20008;-69
2023/09/03 16:16:41;;;;;;;6.97;3.88;;;;;;;;;;12869676;23;20066;-69
2023/09/03 16:21:42;;;;;;;4.40;3.30;;;;;;;;;;12869353;23;20039;-70
2023/09/03 16:26:42;;;;;;;11.80;3.83;;;;;;;;;;12869535;23;20213;-71
2023/09/03 16:31:42;;;;;;;7.55;4.30;;;;;;;;;;12868969;23;20018;-70
2023/09/03 16:36:44;;;;;;;7.68;4.07;;;;;;;;;;12820923;23;20035;-69
2023/09/03 16:41:44;;;;;;;22.30;4.72;;;;;;;;;;12821223;23;20332;-70
2023/09/03 16:46:45;;;;;;;9.73;4.70;;;;;;;;;;12869318;23;19992;-71
2023/09/03 16:51:45;;;;;;;6.32;3.78;;;;;;;;;;12869704;23;20024;-70
2023/09/03 16:56:45;;;;;;;7.07;3.50;;;;;;;;;;12869497;23;20016;-75
2023/09/03 17:01:46;;;;;;;7.72;4.18;;;;;;;;;;12870414;23;19993;-71
2023/09/03 17:06:47;;;;;;;7.05;3.45;;;;;;;;;;12877884;23;20015;-88
2023/09/03 17:11:47;;;;;;;11.25;6.25;;;;;;;;;;12827864;23;20087;-70
2023/09/03 17:16:48;;;;;;;11.90;8.27;;;;;;;;;;12871840;23;20235;-70
2023/09/03 17:21:49;;;;;;;6.43;4.65;;;;;;;;;;12868925;23;20003;-71
2023/09/03 17:26:49;;;;;;;8.43;4.50;;;;;;;;;;12868230;23;19989;-71
2023/09/03 17:31:51;;;;;;;9.55;4.28;;;;;;;;;;12868406;23;20080;-71
2023/09/03 17:36:52;;;;;;;8.07;4.20;;;;;;;;;;12862274;23;20016;-71
2023/09/03 17:41:52;;;;;;;10.17;4.50;;;;;;;;;;12868630;23;19992;-72
2023/09/03 17:46:52;;;;;;;5.97;3.40;;;;;;;;;;12867661;23;20243;-71
2023/09/03 17:51:53;;;;;;;7.53;4.17;;;;;;;;;;12820460;23;20044;-71
2023/09/03 17:56:53;;;;;;;9.50;4.95;;;;;;;;;;12868193;23;20000;-77
2023/09/03 18:02:03;;;;;;;9.43;4.28;;;;;;;;;;12878498;23;20275;-93
2023/09/03 18:07:06;;;;;;;8.20;4.65;;;;;;;;;;12838560;23;20015;-85
2023/09/03 18:12:06;;;;;;;6.25;3.88;;;;;;;;;;12823772;23;20005;-73
2023/09/03 18:17:06;;;;;;;9.73;4.50;;;;;;;;;;12820612;23;20021;-73
2023/09/03 18:22:07;;;;;;;10.52;4.95;;;;;;;;;;12867720;23;20187;-77
2023/09/03 18:27:07;;;;;;;7.60;4.68;;;;;;;;;;12867794;23;20004;-70
2023/09/03 18:32:08;;;;;;;9.27;4.57;;;;;;;;;;12867551;23;20014;-69
2023/09/03 18:37:08;;;;;;;13.30;4.72;;;;;;;;;;12859773;23;20008;-69
2023/09/03 18:42:09;;;;;;;10.60;4.57;;;;;;;;;;12866955;23;20000;-68
2023/09/03 18:47:09;;;;;;;9.52;5.57;;;;;;;;;;12867055;23;20452;-69
2023/09/03 18:52:09;;;;;;;15.85;5.18;;;;;;;;;;12819365;23;20063;-69
2023/09/03 18:57:09;;;;;;;10.50;5.97;;;;;;;;;;12866161;23;20323;-69
2023/09/03 19:02:12;;;;;;;9.15;6.07;;;;;;;;;;12819883;23;19997;-69
2023/09/03 19:07:12;;;;;;;11.95;6.97;;;;;;;;;;12867682;23;20318;-72
2023/09/03 19:12:15;;;;;;;15.47;5.57;;;;;;;;;;12820214;23;19996;-68
2023/09/03 19:17:16;;;;;;;6.70;4.88;;;;;;;;;;12867447;23;20008;-69
2023/09/03 19:22:16;;;;;;;9.47;5.20;;;;;;;;;;12873147;23;19993;-88
2023/09/03 19:27:16;;;;;;;11.00;4.10;;;;;;;;;;12822695;23;20003;-77
2023/09/03 19:32:26;;;;;;;10.43;4.30;;;;;;;;;;12827420;23;20001;-90
2023/09/03 19:37:30;;;;;;;8.32;3.90;;;;;;;;;;12856409;23;20088;-82
2023/09/03 19:42:30;;;;;;;4.43;3.20;;;;;;;;;;12821672;23;20353;-74
2023/09/03 19:47:30;;;;;;;6.95;3.58;;;;;;;;;;12868452;23;20004;-75
2023/09/03 19:52:31;;;;;;;5.68;4.10;;;;;;;;;;12872164;23;20341;-82
2023/09/03 19:57:31;;;;;;;6.95;4.38;;;;;;;;;;12872012;23;19996;-78
2023/09/03 20:02:31;;;;;;;11.13;5.55;;;;;;;;;;12875868;23;20278;-79
2023/09/03 20:07:32;;;;;;;29.33;6.72;;;;;;;;;;12871150;23;20000;-73
2023/09/03 20:12:32;;;;;;;23.15;7.78;;;;;;;;;;12859242;23;20007;-75
2023/09/03 20:17:32;;;;;;;18.58;7.85;;;;;;;;;;12872614;23;20017;-74
2023/09/03 20:22:32;;;;;;;17.10;7.18;;;;;;;;;;12872545;23;20035;-67
2023/09/03 20:27:33;;;;;;;17.77;8.73;;;;;;;;;;12880685;23;20009;-66
2023/09/03 20:32:33;;;;;;;13.15;9.13;;;;;;;;;;12878290;23;19993;-68
2023/09/03 20:37:37;;;;;;;16.30;9.75;;;;;;;;;;12868752;23;19997;-68
2023/09/03 20:42:38;;;;;;;14.60;7.07;;;;;;;;;;12881418;23;19997;-68
2023/09/03 20:47:39;;;;;;;17.67;9.80;;;;;;;;;;12879172;23;20012;-68
2023/09/03 20:52:39;;;;;;;15.13;8.85;;;;;;;;;;12881567;23;19992;-66
2023/09/03 20:57:39;;;;;;;15.93;9.48;;;;;;;;;;12881546;23;19997;-66
2023/09/03 21:02:40;;;;;;;16.40;9.68;;;;;;;;;;12881007;23;19997;-67
2023/09/03 21:07:40;;;;;;;19.75;11.32;;;;;;;;;;12881232;23;19992;-68
2023/09/03 21:12:41;;;;;;;15.52;9.48;;;;;;;;;;12834637;23;20016;-68
2023/09/03 21:17:42;;;;;;;15.00;9.95;;;;;;;;;;12881139;23;20054;-68
2023/09/03 21:22:43;;;;;;;15.32;9.77;;;;;;;;;;12880674;23;19988;-68
2023/09/03 21:27:43;;;;;;;13.23;9.35;;;;;;;;;;12881013;23;20490;-67
2023/09/03 21:32:43;;;;;;;15.15;8.93;;;;;;;;;;12880821;23;20003;-68
2023/09/03 21:37:43;;;;;;;15.20;8.85;;;;;;;;;;12870710;23;20176;-67
2023/09/03 21:42:47;;;;;;;19.75;9.65;;;;;;;;;;12880946;23;19997;-67
2023/09/03 21:47:48;;;;;;;15.23;10.32;;;;;;;;;;12880210;23;19996;-67
2023/09/03 21:52:48;;;;;;;16.80;9.77;;;;;;;;;;12880527;23;19997;-67
2023/09/03 21:57:48;;;;;;;15.37;9.77;;;;;;;;;;12880518;23;20008;-67
2023/09/03 22:02:50;;;;;;;12.52;7.25;;;;;;;;;;12832571;23;20330;-67
2023/09/03 22:07:50;;;;;;;8.90;5.90;;;;;;;;;;12879744;23;20003;-67
2023/09/03 22:12:51;;;;;;;7.35;5.57;;;;;;;;;;12880152;23;20283;-67
2023/09/03 22:17:52;;;;;;;9.15;5.13;;;;;;;;;;12879704;23;20052;-66
2023/09/03 22:22:52;;;;;;;4.13;3.13;;;;;;;;;;12879670;23;19988;-67
2023/09/03 22:27:53;;;;;;;10.23;4.20;;;;;;;;;;12879975;23;20190;-68
2023/09/03 22:32:53;;;;;;;5.87;3.03;;;;;;;;;;12879582;23;20015;-68
2023/09/03 22:37:53;;;;;;;5.63;3.03;;;;;;;;;;12869155;23;20210;-69
2023/09/03 22:42:55;;;;;;;5.30;2.40;;;;;;;;;;12879688;23;19988;-67
2023/09/03 22:47:56;;;;;;;3.28;2.28;;;;;;;;;;12878949;23;19989;-67
2023/09/03 22:52:56;;;;;;;4.90;2.70;;;;;;;;;;12879420;23;20023;-67
2023/09/03 22:57:56;;;;;;;4.95;3.30;;;;;;;;;;12878731;23;20317;-67
2023/09/03 23:02:57;;;;;;;4.20;2.90;;;;;;;;;;12878769;23;20301;-67
2023/09/03 23:07:57;;;;;;;7.20;3.10;;;;;;;;;;12878832;23;20015;-67
2023/09/03 23:12:57;;;;;;;3.40;2.20;;;;;;;;;;12878662;23;20254;-68
2023/09/03 23:17:57;;;;;;;5.13;2.67;;;;;;;;;;12878593;23;20031;-68
2023/09/03 23:22:58;;;;;;;2.30;2.10;;;;;;;;;;12878532;23;19992;-69
2023/09/03 23:27:58;;;;;;;5.60;3.05;;;;;;;;;;12878513;23;20271;-67
2023/09/03 23:32:58;;;;;;;2.40;2.20;;;;;;;;;;12878873;23;20019;-66
2023/09/03 23:37:59;;;;;;;2.35;1.90;;;;;;;;;;12868524;23;20001;-68
2023/09/03 23:42:59;;;;;;;3.60;2.70;;;;;;;;;;12878475;23;20536;-68
2023/09/03 23:47:59;;;;;;;4.68;2.28;;;;;;;;;;12878373;23;19995;-68
2023/09/03 23:52:59;;;;;;;17.75;3.80;;;;;;;;;;12878811;23;20001;-68
2023/09/03 23:58:00;;;;;;;10.70;4.30;;;;;;;;;;12879110;23;19985;-69
